createdAt,value
2023-01-10T00:00:27.493Z,5.23
2023-01-10T00:02:54.126Z,5.20
2023-01-10T00:05:20.732Z,5.18
2023-01-10T00:07:47.342Z,5.16
2023-01-10T00:10:14.119Z,5.14
2023-01-10T00:12:59.088Z,5.15
2023-01-10T00:15:25.565Z,5.15
2023-01-10T00:17:52.023Z,5.17
2023-01-10T00:20:19.237Z,5.18
2023-01-10T00:22:45.824Z,5.19
2023-01-10T00:25:12.249Z,5.22
2023-01-10T00:27:39.287Z,5.25
2023-01-10T00:30:13.869Z,5.26
2023-01-10T00:32:45.165Z,5.27
2023-01-10T00:35:12.925Z,5.27
2023-01-10T00:37:40.671Z,5.29
2023-01-10T00:40:11.177Z,5.31
2023-01-10T00:42:56.344Z,5.31
2023-01-10T00:45:25.010Z,5.32
2023-01-10T00:47:52.145Z,5.32
2023-01-10T00:50:18.885Z,5.33
2023-01-10T00:52:45.307Z,5.35
2023-01-10T00:55:11.769Z,5.36
2023-01-10T00:57:38.362Z,5.38
2023-01-10T01:00:09.055Z,5.39
2023-01-10T01:02:35.912Z,5.40
2023-01-10T01:05:02.394Z,5.41
2023-01-10T01:07:28.899Z,5.40
2023-01-10T01:10:13.837Z,5.39
2023-01-10T01:12:40.293Z,5.38
2023-01-10T01:15:07.244Z,5.35
2023-01-10T01:17:33.658Z,5.34
2023-01-10T01:20:00.102Z,5.32
2023-01-10T01:22:26.535Z,5.34
2023-01-10T01:24:53.040Z,5.34
2023-01-10T01:27:20.909Z,5.34
2023-01-10T01:29:47.334Z,5.36
2023-01-10T01:32:13.867Z,5.36
2023-01-10T01:34:41.074Z,5.39
2023-01-10T01:37:07.596Z,5.41
2023-01-10T01:39:34.059Z,5.43
2023-01-10T01:42:00.564Z,5.44
2023-01-10T01:44:38.012Z,5.47
2023-01-10T01:47:16.571Z,5.47
2023-01-10T01:49:45.062Z,5.47
2023-01-10T01:52:27.400Z,5.49
2023-01-10T01:54:58.708Z,5.51
2023-01-10T01:57:28.247Z,5.50
2023-01-10T01:59:56.012Z,5.46
2023-01-10T02:02:29.041Z,5.42
2023-01-10T02:05:11.059Z,5.38
2023-01-10T02:07:40.609Z,5.34
2023-01-10T02:10:13.492Z,5.34
2023-01-10T02:12:40.379Z,5.31
2023-01-10T02:15:07.405Z,5.31
2023-01-10T02:17:33.891Z,5.31
2023-01-10T02:20:05.718Z,5.32
2023-01-10T02:22:50.956Z,5.34
2023-01-10T02:25:51.521Z,5.35
2023-01-10T02:28:24.040Z,5.37
2023-01-10T02:31:26.456Z,5.36
2023-01-10T02:34:28.671Z,5.39
2023-01-10T02:37:00.964Z,5.40
2023-01-10T02:39:37.683Z,5.41
2023-01-10T02:42:09.630Z,5.40
2023-01-10T02:44:54.824Z,5.44
2023-01-10T02:47:21.418Z,5.42
2023-01-10T02:49:50.051Z,5.44
2023-01-10T02:52:28.103Z,5.46
2023-01-10T02:55:01.536Z,5.48
2023-01-10T02:58:01.638Z,5.47
2023-01-10T03:00:56.654Z,5.48
2023-01-10T03:03:37.687Z,5.51
2023-01-10T03:06:24.249Z,5.53
2023-01-10T03:08:53.822Z,5.53
2023-01-10T03:11:39.972Z,5.53
2023-01-10T03:14:15.121Z,5.54
2023-01-10T03:16:47.427Z,5.52
2023-01-10T03:19:18.947Z,5.53
2023-01-10T03:21:49.360Z,5.51
2023-01-10T03:24:31.901Z,5.49
2023-01-10T03:27:18.849Z,5.50
2023-01-10T03:29:54.467Z,5.53
2023-01-10T03:32:25.177Z,5.54
2023-01-10T03:34:52.690Z,5.54
2023-01-10T03:37:36.032Z,5.55
2023-01-10T03:40:43.263Z,5.57
2023-01-10T03:43:55.876Z,5.59
2023-01-10T03:46:31.496Z,5.59
2023-01-10T03:48:59.649Z,5.58
2023-01-10T03:51:28.004Z,5.57
2023-01-10T03:53:54.530Z,5.57
2023-01-10T03:56:21.024Z,5.56
2023-01-10T03:58:47.790Z,5.54
2023-01-10T04:01:14.298Z,5.53
2023-01-10T04:03:40.867Z,5.50
2023-01-10T04:06:07.530Z,5.47
2023-01-10T04:08:34.015Z,5.42
2023-01-10T04:11:00.519Z,5.37
2023-01-10T04:13:26.976Z,5.33
2023-01-10T04:15:53.546Z,5.28
2023-01-10T04:18:20.136Z,5.29
2023-01-10T04:20:46.664Z,5.27
2023-01-10T04:23:13.162Z,5.28
2023-01-10T04:25:39.696Z,5.27
2023-01-10T04:28:06.213Z,5.25
2023-01-10T04:30:32.698Z,5.22
2023-01-10T04:32:59.121Z,5.19
2023-01-10T04:35:25.660Z,5.16
2023-01-10T04:37:52.083Z,5.12
2023-01-10T04:40:19.744Z,5.08
2023-01-10T04:42:46.303Z,5.04
2023-01-10T04:45:14.406Z,5.00
2023-01-10T04:47:40.938Z,4.99
2023-01-10T04:50:07.837Z,4.96
2023-01-10T04:52:34.263Z,4.93
2023-01-10T04:55:00.749Z,4.93
2023-01-10T04:57:27.241Z,4.92
2023-01-10T04:59:53.800Z,4.90
2023-01-10T05:02:20.477Z,4.87
2023-01-10T05:04:47.005Z,4.84
2023-01-10T05:07:13.594Z,4.82
2023-01-10T05:09:40.140Z,4.80
2023-01-10T05:12:06.669Z,4.77
2023-01-10T05:14:33.259Z,4.72
2023-01-10T05:16:59.677Z,4.69
2023-01-10T05:19:26.188Z,4.65
2023-01-10T05:21:53.355Z,4.60
2023-01-10T05:24:19.955Z,4.55
2023-01-10T05:26:46.378Z,4.51
2023-01-10T05:29:14.430Z,4.49
2023-01-10T05:31:41.512Z,4.48
2023-01-10T05:34:11.885Z,4.46
2023-01-10T05:36:38.639Z,4.46
2023-01-10T05:39:05.400Z,4.47
2023-01-10T05:41:31.847Z,4.48
2023-01-10T05:43:58.303Z,4.52
2023-01-10T05:46:24.830Z,4.56
2023-01-10T05:48:52.812Z,4.62
2023-01-10T05:51:19.362Z,4.67
2023-01-10T05:53:45.802Z,4.70
2023-01-10T05:56:12.302Z,4.75
2023-01-10T05:58:38.781Z,4.79
2023-01-10T06:01:05.398Z,4.84
2023-01-10T06:03:31.984Z,4.88
2023-01-10T06:05:58.502Z,4.91
2023-01-10T06:08:25.144Z,4.94
2023-01-10T06:10:51.960Z,4.97
2023-01-10T06:13:18.480Z,5.02
2023-01-10T06:15:45.072Z,5.04
2023-01-10T06:18:12.473Z,5.07
2023-01-10T06:20:40.209Z,5.10
2023-01-10T06:23:07.045Z,5.13
2023-01-10T06:25:40.596Z,5.14
2023-01-10T06:28:12.157Z,5.19
2023-01-10T06:30:41.913Z,5.21
2023-01-10T06:33:09.527Z,5.24
2023-01-10T06:35:36.455Z,5.27
2023-01-10T06:38:03.338Z,5.26
2023-01-10T06:40:29.891Z,5.29
2023-01-10T06:42:56.373Z,5.32
2023-01-10T06:45:22.886Z,5.35
2023-01-10T06:47:49.388Z,5.36
2023-01-10T06:50:16.064Z,5.38
2023-01-10T06:52:42.599Z,5.39
2023-01-10T06:55:09.811Z,5.40
2023-01-10T06:57:38.122Z,5.42
2023-01-10T07:00:06.956Z,5.43
2023-01-10T07:02:33.492Z,5.42
2023-01-10T07:04:59.931Z,5.44
2023-01-10T07:07:26.378Z,5.45
2023-01-10T07:09:53.036Z,5.48
2023-01-10T07:12:19.491Z,5.48
2023-01-10T07:14:46.041Z,5.49
2023-01-10T07:17:12.499Z,5.50
2023-01-10T07:19:38.995Z,5.52
2023-01-10T07:22:05.448Z,5.52
2023-01-10T07:24:31.940Z,5.51
2023-01-10T07:26:58.398Z,5.48
2023-01-10T07:29:24.891Z,5.49
2023-01-10T07:31:51.917Z,5.48
2023-01-10T07:34:18.543Z,5.50
2023-01-10T07:36:45.012Z,5.49
2023-01-10T07:39:11.604Z,5.49
2023-01-10T07:41:38.107Z,5.50
2023-01-10T07:44:04.913Z,5.49
2023-01-10T07:46:31.534Z,5.49
2023-01-10T07:48:58.110Z,5.50
2023-01-10T07:51:24.562Z,5.47
2023-01-10T07:53:51.375Z,5.47
2023-01-10T07:56:17.906Z,5.44
2023-01-10T07:58:46.252Z,5.43
2023-01-10T08:01:12.754Z,5.41
2023-01-10T08:03:39.507Z,5.42
2023-01-10T08:06:08.187Z,5.40
2023-01-10T08:08:34.963Z,5.38
2023-01-10T08:11:04.778Z,5.40
2023-01-10T08:13:32.840Z,5.38
2023-01-10T08:15:59.417Z,5.39
2023-01-10T08:18:26.256Z,5.37
2023-01-10T08:20:54.271Z,5.36
2023-01-10T08:23:21.383Z,5.35
2023-01-10T08:25:48.400Z,5.33
2023-01-10T08:28:15.120Z,5.33
2023-01-10T08:30:41.894Z,5.34
2023-01-10T08:33:10.203Z,5.32
2023-01-10T08:35:38.847Z,5.32
2023-01-10T08:38:05.522Z,5.35
2023-01-10T08:40:32.310Z,5.37
2023-01-10T08:43:04.595Z,5.36
2023-01-10T08:45:31.494Z,5.36
2023-01-10T08:47:58.149Z,5.36
2023-01-10T08:50:25.595Z,5.36
2023-01-10T08:52:52.085Z,5.35
2023-01-10T08:55:19.361Z,5.38
2023-01-10T08:57:46.011Z,5.38
2023-01-10T09:00:13.228Z,5.42
2023-01-10T09:02:40.737Z,5.44
2023-01-10T09:05:15.041Z,5.45
2023-01-10T09:07:48.783Z,5.46
2023-01-10T09:10:15.415Z,5.48
2023-01-10T09:12:57.200Z,5.49
2023-01-10T09:15:29.396Z,5.51
2023-01-10T09:18:00.837Z,5.53
2023-01-10T09:20:29.172Z,5.55
2023-01-10T09:22:56.975Z,5.54
2023-01-10T09:25:24.836Z,5.53
2023-01-10T09:28:01.306Z,5.53
2023-01-10T09:30:28.938Z,5.53
2023-01-10T09:32:56.920Z,5.53
2023-01-10T09:35:24.903Z,5.54
2023-01-10T09:37:55.364Z,5.56
2023-01-10T09:40:41.173Z,5.57
2023-01-10T09:43:18.156Z,5.58
2023-01-10T09:45:51.947Z,5.58
2023-01-10T09:48:37.909Z,5.57
2023-01-10T09:51:29.300Z,5.60
2023-01-10T09:54:10.778Z,5.59
2023-01-10T09:56:39.149Z,5.63
2023-01-10T09:59:06.349Z,5.63
2023-01-10T10:01:37.492Z,5.65
2023-01-10T10:04:35.064Z,5.66
2023-01-10T10:07:04.178Z,5.64
2023-01-10T10:09:35.230Z,5.63
2023-01-10T10:12:21.342Z,5.63
2023-01-10T10:14:54.691Z,5.64
2023-01-10T10:17:29.641Z,5.63
2023-01-10T10:20:17.037Z,5.63
2023-01-10T10:23:18.464Z,5.65
2023-01-10T10:26:09.793Z,5.66
2023-01-10T10:28:54.845Z,5.70
2023-01-10T10:31:37.654Z,5.71
2023-01-10T10:34:16.364Z,5.77
2023-01-10T10:36:58.880Z,5.77
2023-01-10T10:39:31.533Z,5.77
2023-01-10T10:41:58.751Z,5.77
2023-01-10T10:44:37.119Z,5.77
2023-01-10T10:47:13.512Z,5.75
2023-01-10T10:50:15.145Z,5.74
2023-01-10T10:52:44.312Z,5.74
2023-01-10T10:55:19.557Z,5.72
2023-01-10T10:57:59.289Z,5.66
2023-01-10T11:00:27.545Z,5.65
2023-01-10T11:03:07.363Z,5.65
2023-01-10T11:05:46.114Z,5.63
2023-01-10T11:08:16.951Z,5.65
2023-01-10T11:10:48.131Z,5.66
2023-01-10T11:13:32.958Z,5.68
2023-01-10T11:16:01.443Z,5.70
2023-01-10T11:18:29.542Z,5.70
2023-01-10T11:21:04.611Z,5.72
2023-01-10T11:23:39.941Z,5.73
2023-01-10T11:26:34.595Z,5.73
2023-01-10T11:29:16.940Z,5.75
2023-01-10T11:31:45.212Z,5.78
2023-01-10T11:34:29.764Z,5.77
2023-01-10T11:37:18.704Z,5.78
2023-01-10T11:39:45.150Z,5.77
2023-01-10T11:42:30.345Z,5.80
2023-01-10T11:45:19.410Z,5.80
2023-01-10T11:47:55.901Z,5.82
2023-01-10T11:50:28.280Z,5.81
2023-01-10T11:52:56.201Z,5.83
2023-01-10T11:55:31.857Z,5.85
2023-01-10T11:58:04.461Z,5.87
2023-01-10T12:00:40.750Z,5.85
2023-01-10T12:03:42.928Z,5.90
2023-01-10T12:06:15.817Z,5.93
2023-01-10T12:08:42.585Z,5.95
2023-01-10T12:11:17.997Z,5.96
2023-01-10T12:13:52.606Z,5.97
2023-01-10T12:16:24.160Z,5.99
2023-01-10T12:18:52.901Z,5.99
2023-01-10T12:21:41.245Z,5.99
2023-01-10T12:24:18.588Z,6.02
2023-01-10T12:26:47.301Z,6.02
2023-01-10T12:29:24.459Z,6.04
2023-01-10T12:31:53.968Z,6.05
2023-01-10T12:34:25.170Z,6.05
2023-01-10T12:37:20.269Z,6.09
2023-01-10T12:39:59.379Z,6.09
2023-01-10T12:42:48.689Z,6.12
2023-01-10T12:45:24.642Z,6.15
2023-01-10T12:48:00.125Z,6.16
2023-01-10T12:50:32.644Z,6.15
2023-01-10T12:53:30.220Z,6.17
2023-01-10T12:56:00.377Z,6.19
2023-01-10T12:58:44.022Z,6.19
2023-01-10T13:01:45.926Z,6.20
2023-01-10T13:04:18.345Z,6.22
2023-01-10T13:06:45.645Z,6.21
2023-01-10T13:09:22.657Z,6.23
2023-01-10T13:12:02.480Z,6.24
2023-01-10T13:14:33.973Z,6.25
2023-01-10T13:17:29.614Z,6.26
2023-01-10T13:20:19.296Z,6.29
2023-01-10T13:22:54.079Z,6.30
2023-01-10T13:25:22.495Z,6.32
2023-01-10T13:27:57.294Z,6.33
2023-01-10T13:30:32.186Z,6.35
2023-01-10T13:33:05.954Z,6.37
2023-01-10T13:35:43.970Z,6.37
2023-01-10T13:38:39.337Z,6.40
2023-01-10T13:41:08.211Z,6.41
2023-01-10T13:44:00.949Z,6.42
2023-01-10T13:46:30.506Z,6.44
2023-01-10T13:49:00.146Z,6.46
2023-01-10T13:51:27.769Z,6.48
2023-01-10T13:54:19.221Z,6.50
2023-01-10T13:56:45.840Z,6.51
2023-01-10T13:59:46.176Z,6.52
2023-01-10T14:02:29.603Z,6.53
2023-01-10T14:05:00.712Z,6.56
2023-01-10T14:07:29.273Z,6.56
2023-01-10T14:10:21.102Z,6.58
2023-01-10T14:13:09.067Z,6.59
2023-01-10T14:15:41.382Z,6.59
2023-01-10T14:18:22.505Z,6.59
2023-01-10T14:21:07.530Z,6.57
2023-01-10T14:23:51.632Z,6.57
2023-01-10T14:26:40.372Z,6.52
2023-01-10T14:29:12.688Z,6.47
2023-01-10T14:31:47.036Z,6.42
2023-01-10T14:34:25.969Z,6.37
2023-01-10T14:37:03.456Z,6.34
2023-01-10T14:39:30.787Z,6.31
2023-01-10T14:42:07.947Z,6.29
2023-01-10T14:44:46.535Z,6.26
2023-01-10T14:47:34.335Z,6.23
2023-01-10T14:50:02.315Z,6.21
2023-01-10T14:52:29.387Z,6.20
2023-01-10T14:55:04.262Z,6.19
2023-01-10T14:57:30.785Z,6.17
2023-01-10T15:00:34.559Z,6.13
2023-01-10T15:03:03.895Z,6.12
2023-01-10T15:05:33.980Z,6.11
2023-01-10T15:08:24.033Z,6.10
2023-01-10T15:11:05.733Z,6.09
2023-01-10T15:13:37.514Z,6.07
2023-01-10T15:16:05.575Z,6.06
2023-01-10T15:18:45.485Z,6.04
2023-01-10T15:21:14.300Z,6.04
2023-01-10T15:23:43.490Z,6.03
2023-01-10T15:26:26.865Z,6.03
2023-01-10T15:29:12.554Z,6.02
2023-01-10T15:31:41.215Z,6.00
2023-01-10T15:34:26.591Z,6.01
2023-01-10T15:36:56.017Z,6.00
2023-01-10T15:39:26.393Z,5.99
2023-01-10T15:42:03.669Z,5.98
2023-01-10T15:44:45.067Z,5.97
2023-01-10T15:47:33.086Z,5.97
2023-01-10T15:49:59.638Z,5.96
2023-01-10T15:52:26.133Z,5.95
2023-01-10T15:54:52.914Z,5.95
2023-01-10T15:57:25.643Z,5.94
2023-01-10T15:59:52.497Z,5.94
2023-01-10T16:02:30.693Z,5.94
2023-01-10T16:05:06.597Z,5.92
2023-01-10T16:07:35.886Z,5.94
2023-01-10T16:10:22.859Z,5.91
2023-01-10T16:13:07.915Z,5.91
2023-01-10T16:15:36.633Z,5.90
2023-01-10T16:18:03.088Z,5.88
2023-01-10T16:20:32.096Z,5.87
2023-01-10T16:22:59.951Z,5.87
2023-01-10T16:25:38.915Z,5.85
2023-01-10T16:28:06.132Z,5.85
2023-01-10T16:30:34.636Z,5.83
2023-01-10T16:33:12.541Z,5.80
2023-01-10T16:35:39.560Z,5.80
2023-01-10T16:38:06.002Z,5.80
2023-01-10T16:40:41.693Z,5.80
2023-01-10T16:43:21.520Z,5.79
2023-01-10T16:45:51.143Z,5.76
2023-01-10T16:48:19.523Z,5.74
2023-01-10T16:50:47.330Z,5.73
2023-01-10T16:53:16.257Z,5.72
2023-01-10T16:55:52.877Z,5.70
2023-01-10T16:58:20.628Z,5.70
2023-01-10T17:00:51.097Z,5.71
2023-01-10T17:03:22.013Z,5.70
2023-01-10T17:05:49.044Z,5.69
2023-01-10T17:08:21.124Z,5.68
2023-01-10T17:10:52.577Z,5.69
2023-01-10T17:13:32.374Z,5.68
2023-01-10T17:15:58.964Z,5.69
2023-01-10T17:18:28.526Z,5.68
2023-01-10T17:20:57.196Z,5.68
2023-01-10T17:23:25.163Z,5.68
2023-01-10T17:25:59.152Z,5.68
2023-01-10T17:28:25.751Z,5.68
2023-01-10T17:30:52.447Z,5.67
2023-01-10T17:33:18.884Z,5.67
2023-01-10T17:35:45.355Z,5.68
2023-01-10T17:38:14.276Z,5.69
2023-01-10T17:40:46.045Z,5.70
2023-01-10T17:43:13.685Z,5.71
2023-01-10T17:45:41.027Z,5.73
2023-01-10T17:48:08.241Z,5.75
2023-01-10T17:50:36.038Z,5.77
2023-01-10T17:53:02.507Z,5.78
2023-01-10T17:55:28.942Z,5.79
2023-01-10T17:57:55.444Z,5.80
2023-01-10T18:00:21.951Z,5.80
2023-01-10T18:02:48.754Z,5.82
2023-01-10T18:05:15.493Z,5.84
2023-01-10T18:07:41.926Z,5.86
2023-01-10T18:10:09.130Z,5.87
2023-01-10T18:12:36.781Z,5.90
2023-01-10T18:15:04.600Z,5.91
2023-01-10T18:17:31.074Z,5.94
2023-01-10T18:19:57.469Z,5.96
2023-01-10T18:22:42.296Z,5.97
2023-01-10T18:25:08.892Z,6.00
2023-01-10T18:27:36.167Z,6.03
2023-01-10T18:30:02.855Z,6.05
2023-01-10T18:32:29.371Z,6.06
2023-01-10T18:34:55.826Z,6.09
2023-01-10T18:37:22.260Z,6.11
2023-01-10T18:39:49.530Z,6.12
2023-01-10T18:42:16.355Z,6.14
2023-01-10T18:44:42.859Z,6.16
2023-01-10T18:47:09.370Z,6.18
2023-01-10T18:49:35.806Z,6.19
2023-01-10T18:52:02.251Z,6.22
2023-01-10T18:54:28.659Z,6.23
2023-01-10T18:56:55.992Z,6.27
2023-01-10T18:59:23.100Z,6.29
2023-01-10T19:01:49.750Z,6.31
2023-01-10T19:04:17.442Z,6.34
2023-01-10T19:06:44.269Z,6.37
2023-01-10T19:09:11.020Z,6.39
2023-01-10T19:11:37.459Z,6.41
2023-01-10T19:14:04.235Z,6.46
2023-01-10T19:16:34.175Z,6.49
2023-01-10T19:19:09.018Z,6.52
2023-01-10T19:21:38.940Z,6.55
2023-01-10T19:24:08.023Z,6.59
2023-01-10T19:26:34.897Z,6.60
2023-01-10T19:29:04.237Z,6.64
2023-01-10T19:31:30.750Z,6.68
2023-01-10T19:34:01.439Z,6.70
2023-01-10T19:36:28.799Z,6.71
2023-01-10T19:38:57.091Z,6.75
2023-01-10T19:41:28.610Z,6.78
2023-01-10T19:43:59.505Z,6.80
2023-01-10T19:46:27.218Z,6.83
2023-01-10T19:48:56.676Z,6.86
2023-01-10T19:51:23.488Z,6.88
2023-01-10T19:53:49.980Z,6.89
2023-01-10T19:56:21.719Z,6.92
2023-01-10T19:58:49.141Z,6.96
2023-01-10T20:01:19.517Z,6.99
2023-01-10T20:03:47.727Z,7.00
2023-01-10T20:06:17.271Z,7.04
2023-01-10T20:08:44.948Z,7.06
2023-01-10T20:11:11.603Z,7.10
2023-01-10T20:13:44.430Z,7.12
2023-01-10T20:16:16.975Z,7.12
2023-01-10T20:18:43.968Z,7.13
2023-01-10T20:21:13.070Z,7.13
2023-01-10T20:23:41.089Z,7.18
2023-01-10T20:26:27.859Z,7.20
2023-01-10T20:28:56.127Z,7.22
2023-01-10T20:31:23.933Z,7.25
2023-01-10T20:33:51.049Z,7.27
2023-01-10T20:36:19.354Z,7.28
2023-01-10T20:38:46.030Z,7.28
2023-01-10T20:41:24.106Z,7.31
2023-01-10T20:43:51.115Z,7.35
2023-01-10T20:46:20.482Z,7.38
2023-01-10T20:48:48.924Z,7.39
2023-01-10T20:51:19.445Z,7.40
2023-01-10T20:53:46.646Z,7.44
2023-01-10T20:56:16.244Z,7.44
2023-01-10T20:58:43.035Z,7.45
2023-01-10T21:01:10.479Z,7.48
2023-01-10T21:03:37.249Z,7.48
2023-01-10T21:06:04.203Z,7.48
2023-01-10T21:08:30.703Z,7.49
2023-01-10T21:10:57.827Z,7.48
2023-01-10T21:13:24.997Z,7.51
2023-01-10T21:15:55.683Z,7.51
2023-01-10T21:18:26.853Z,7.55
2023-01-10T21:20:55.575Z,7.56
2023-01-10T21:23:24.323Z,7.60
2023-01-10T21:25:51.484Z,7.62
2023-01-10T21:28:18.457Z,7.62
2023-01-10T21:30:45.868Z,7.66
2023-01-10T21:33:13.133Z,7.66
2023-01-10T21:35:39.670Z,7.68
2023-01-10T21:38:06.108Z,7.72
2023-01-10T21:40:34.254Z,7.72
2023-01-10T21:43:00.683Z,7.73
2023-01-10T21:45:28.434Z,7.74
2023-01-10T21:47:55.436Z,7.76
2023-01-10T21:50:22.634Z,7.78
2023-01-10T21:52:49.185Z,7.79
2023-01-10T21:55:16.577Z,7.82
2023-01-10T21:57:43.055Z,7.80
2023-01-10T22:00:10.256Z,7.82
2023-01-10T22:02:36.841Z,7.82
2023-01-10T22:05:03.383Z,7.84
2023-01-10T22:07:29.841Z,7.84
2023-01-10T22:09:56.258Z,7.86
2023-01-10T22:12:24.421Z,7.87
2023-01-10T22:14:51.131Z,7.87
2023-01-10T22:17:17.858Z,7.90
2023-01-10T22:19:44.309Z,7.90
2023-01-10T22:22:13.820Z,7.96
2023-01-10T22:24:43.030Z,7.98
2023-01-10T22:27:10.675Z,7.99
2023-01-10T22:29:37.061Z,8.03
2023-01-10T22:32:03.690Z,8.07
2023-01-10T22:34:30.109Z,8.10
2023-01-10T22:36:56.521Z,8.15
2023-01-10T22:39:23.036Z,8.17
2023-01-10T22:41:49.476Z,8.16
2023-01-10T22:44:26.643Z,8.18
2023-01-10T22:46:54.907Z,8.20
2023-01-10T22:49:21.928Z,8.20
2023-01-10T22:51:48.369Z,8.26
2023-01-10T22:54:17.917Z,8.30
2023-01-10T22:56:46.310Z,8.34
2023-01-10T22:59:13.342Z,8.37
2023-01-10T23:01:39.971Z,8.38
2023-01-10T23:04:06.981Z,8.42
2023-01-10T23:06:33.468Z,8.45
2023-01-10T23:09:00.011Z,8.45
2023-01-10T23:11:26.517Z,8.49
2023-01-10T23:13:52.976Z,8.50
2023-01-10T23:16:28.256Z,8.52
2023-01-10T23:18:56.813Z,8.56
2023-01-10T23:21:23.431Z,8.60
2023-01-10T23:23:50.165Z,8.66
2023-01-10T23:26:16.584Z,8.71
2023-01-10T23:28:46.829Z,8.75
2023-01-10T23:31:19.267Z,8.76
2023-01-10T23:33:45.767Z,8.78
2023-01-10T23:36:12.639Z,8.79
2023-01-10T23:38:39.089Z,8.83
2023-01-10T23:41:06.072Z,8.88
2023-01-10T23:43:32.736Z,8.90
2023-01-10T23:45:59.557Z,8.94
2023-01-10T23:48:26.104Z,8.95
2023-01-10T23:50:52.637Z,8.95
2023-01-10T23:53:19.432Z,8.94
2023-01-10T23:55:46.595Z,8.99
2023-01-10T23:58:13.640Z,9.00
